sensor_id;sensor_type;location;lat;lon;timestamp;P1;durP1;ratioP1;P2;durP2;ratioP2
15693;SDS011;7947;48.834;9.132;2022-07-19T00:00:43;2.92;;;2.10;;
15693;SDS011;7947;48.834;9.132;2022-07-19T00:03:48;6.15;;;3.20;;
15693;SDS011;7947;48.834;9.132;2022-07-19T00:06:51;4.25;;;2.65;;
15693;SDS011;7947;48.834;9.132;2022-07-19T00:09:56;3.92;;;2.53;;
15693;SDS011;7947;48.834;9.132;2022-07-19T00:13:01;3.63;;;2.75;;
15693;SDS011;7947;48.834;9.132;2022-07-19T00:16:04;3.40;;;2.50;;
15693;SDS011;7947;48.834;9.132;2022-07-19T00:19:07;5.15;;;2.47;;
15693;SDS011;7947;48.834;9.132;2022-07-19T00:22:10;2.97;;;2.33;;
15693;SDS011;7947;48.834;9.132;2022-07-19T00:25:13;4.20;;;2.70;;
15693;SDS011;7947;48.834;9.132;2022-07-19T00:28:18;5.32;;;2.78;;
15693;SDS011;7947;48.834;9.132;2022-07-19T00:31:21;3.03;;;2.72;;
15693;SDS011;7947;48.834;9.132;2022-07-19T00:34:25;7.00;;;3.13;;
15693;SDS011;7947;48.834;9.132;2022-07-19T00:37:28;5.45;;;3.20;;
15693;SDS011;7947;48.834;9.132;2022-07-19T00:40:31;4.03;;;2.97;;
15693;SDS011;7947;48.834;9.132;2022-07-19T00:43:36;4.75;;;3.10;;
15693;SDS011;7947;48.834;9.132;2022-07-19T00:46:42;8.75;;;3.20;;
15693;SDS011;7947;48.834;9.132;2022-07-19T00:49:45;4.13;;;2.97;;
15693;SDS011;7947;48.834;9.132;2022-07-19T00:52:48;8.10;;;3.33;;
15693;SDS011;7947;48.834;9.132;2022-07-19T00:55:52;4.60;;;2.90;;
15693;SDS011;7947;48.834;9.132;2022-07-19T00:58:58;5.00;;;3.25;;
15693;SDS011;7947;48.834;9.132;2022-07-19T01:02:02;4.18;;;3.22;;
15693;SDS011;7947;48.834;9.132;2022-07-19T01:05:06;6.22;;;3.38;;
15693;SDS011;7947;48.834;9.132;2022-07-19T01:08:10;4.10;;;2.97;;
15693;SDS011;7947;48.834;9.132;2022-07-19T01:11:14;7.43;;;2.97;;
15693;SDS011;7947;48.834;9.132;2022-07-19T01:14:18;6.65;;;3.45;;
15693;SDS011;7947;48.834;9.132;2022-07-19T01:17:21;4.05;;;3.03;;
15693;SDS011;7947;48.834;9.132;2022-07-19T01:20:24;3.70;;;2.80;;
15693;SDS011;7947;48.834;9.132;2022-07-19T01:23:32;5.70;;;3.50;;
15693;SDS011;7947;48.834;9.132;2022-07-19T01:26:36;5.38;;;3.00;;
15693;SDS011;7947;48.834;9.132;2022-07-19T01:29:39;6.22;;;3.25;;
15693;SDS011;7947;48.834;9.132;2022-07-19T01:32:42;3.80;;;2.90;;
15693;SDS011;7947;48.834;9.132;2022-07-19T01:35:46;3.92;;;2.92;;
15693;SDS011;7947;48.834;9.132;2022-07-19T01:38:51;3.55;;;3.10;;
15693;SDS011;7947;48.834;9.132;2022-07-19T01:41:54;4.88;;;3.25;;
15693;SDS011;7947;48.834;9.132;2022-07-19T01:44:57;5.55;;;3.30;;
15693;SDS011;7947;48.834;9.132;2022-07-19T01:48:00;5.05;;;3.10;;
15693;SDS011;7947;48.834;9.132;2022-07-19T01:51:03;4.97;;;3.13;;
15693;SDS011;7947;48.834;9.132;2022-07-19T01:54:07;3.92;;;2.95;;
15693;SDS011;7947;48.834;9.132;2022-07-19T01:57:10;5.00;;;2.88;;
15693;SDS011;7947;48.834;9.132;2022-07-19T02:00:13;4.82;;;3.17;;
15693;SDS011;7947;48.834;9.132;2022-07-19T02:03:16;4.75;;;3.47;;
15693;SDS011;7947;48.834;9.132;2022-07-19T02:06:20;5.93;;;2.97;;
15693;SDS011;7947;48.834;9.132;2022-07-19T02:09:24;6.07;;;3.10;;
15693;SDS011;7947;48.834;9.132;2022-07-19T02:12:27;4.25;;;3.00;;
15693;SDS011;7947;48.834;9.132;2022-07-19T02:15:30;3.33;;;2.72;;
15693;SDS011;7947;48.834;9.132;2022-07-19T02:18:33;2.75;;;2.42;;
15693;SDS011;7947;48.834;9.132;2022-07-19T02:21:36;5.63;;;3.15;;
15693;SDS011;7947;48.834;9.132;2022-07-19T02:24:41;3.13;;;2.80;;
15693;SDS011;7947;48.834;9.132;2022-07-19T02:27:44;3.25;;;2.92;;
15693;SDS011;7947;48.834;9.132;2022-07-19T02:30:47;5.97;;;3.03;;
15693;SDS011;7947;48.834;9.132;2022-07-19T02:33:50;6.60;;;3.33;;
15693;SDS011;7947;48.834;9.132;2022-07-19T02:36:53;3.90;;;3.13;;
15693;SDS011;7947;48.834;9.132;2022-07-19T02:39:58;3.17;;;2.60;;
15693;SDS011;7947;48.834;9.132;2022-07-19T02:43:01;5.25;;;2.97;;
15693;SDS011;7947;48.834;9.132;2022-07-19T02:46:04;4.97;;;2.70;;
15693;SDS011;7947;48.834;9.132;2022-07-19T02:49:07;3.97;;;2.60;;
15693;SDS011;7947;48.834;9.132;2022-07-19T02:52:10;6.28;;;2.83;;
15693;SDS011;7947;48.834;9.132;2022-07-19T02:55:15;5.38;;;2.63;;
15693;SDS011;7947;48.834;9.132;2022-07-19T02:58:18;5.78;;;2.70;;
15693;SDS011;7947;48.834;9.132;2022-07-19T03:01:21;4.50;;;2.80;;
15693;SDS011;7947;48.834;9.132;2022-07-19T03:04:24;3.58;;;2.83;;
15693;SDS011;7947;48.834;9.132;2022-07-19T03:07:27;3.78;;;2.75;;
15693;SDS011;7947;48.834;9.132;2022-07-19T03:10:31;5.38;;;2.90;;
15693;SDS011;7947;48.834;9.132;2022-07-19T03:13:34;4.03;;;2.67;;
15693;SDS011;7947;48.834;9.132;2022-07-19T03:16:37;4.35;;;3.00;;
15693;SDS011;7947;48.834;9.132;2022-07-19T03:19:40;6.00;;;2.45;;
15693;SDS011;7947;48.834;9.132;2022-07-19T03:22:43;3.75;;;2.55;;
15693;SDS011;7947;48.834;9.132;2022-07-19T03:25:48;4.10;;;2.78;;
15693;SDS011;7947;48.834;9.132;2022-07-19T03:28:50;3.90;;;3.13;;
15693;SDS011;7947;48.834;9.132;2022-07-19T03:31:54;3.38;;;2.88;;
15693;SDS011;7947;48.834;9.132;2022-07-19T03:34:57;2.72;;;2.50;;
15693;SDS011;7947;48.834;9.132;2022-07-19T03:38:00;4.68;;;2.95;;
15693;SDS011;7947;48.834;9.132;2022-07-19T03:41:04;4.80;;;2.70;;
15693;SDS011;7947;48.834;9.132;2022-07-19T03:44:07;5.10;;;2.88;;
15693;SDS011;7947;48.834;9.132;2022-07-19T03:47:10;4.32;;;3.22;;
15693;SDS011;7947;48.834;9.132;2022-07-19T03:50:13;6.53;;;3.00;;
15693;SDS011;7947;48.834;9.132;2022-07-19T03:53:17;6.03;;;3.00;;
15693;SDS011;7947;48.834;9.132;2022-07-19T03:56:21;4.68;;;3.15;;
15693;SDS011;7947;48.834;9.132;2022-07-19T03:59:24;5.32;;;2.80;;
15693;SDS011;7947;48.834;9.132;2022-07-19T04:02:27;6.00;;;3.22;;
15693;SDS011;7947;48.834;9.132;2022-07-19T04:05:30;3.50;;;2.80;;
15693;SDS011;7947;48.834;9.132;2022-07-19T04:08:33;5.18;;;2.83;;
15693;SDS011;7947;48.834;9.132;2022-07-19T04:11:39;9.52;;;3.03;;
15693;SDS011;7947;48.834;9.132;2022-07-19T04:14:42;5.43;;;3.10;;
15693;SDS011;7947;48.834;9.132;2022-07-19T04:17:45;3.75;;;2.63;;
15693;SDS011;7947;48.834;9.132;2022-07-19T04:20:48;7.80;;;3.20;;
15693;SDS011;7947;48.834;9.132;2022-07-19T04:23:51;6.55;;;3.40;;
15693;SDS011;7947;48.834;9.132;2022-07-19T04:26:56;6.38;;;3.40;;
15693;SDS011;7947;48.834;9.132;2022-07-19T04:29:59;7.10;;;3.72;;
15693;SDS011;7947;48.834;9.132;2022-07-19T04:33:02;4.18;;;3.35;;
15693;SDS011;7947;48.834;9.132;2022-07-19T04:36:05;6.68;;;3.40;;
15693;SDS011;7947;48.834;9.132;2022-07-19T04:39:08;6.30;;;3.97;;
15693;SDS011;7947;48.834;9.132;2022-07-19T04:42:13;7.03;;;4.43;;
15693;SDS011;7947;48.834;9.132;2022-07-19T04:45:16;6.25;;;3.50;;
15693;SDS011;7947;48.834;9.132;2022-07-19T04:48:19;5.03;;;3.53;;
15693;SDS011;7947;48.834;9.132;2022-07-19T04:51:22;7.55;;;3.50;;
15693;SDS011;7947;48.834;9.132;2022-07-19T04:54:25;4.75;;;3.33;;
15693;SDS011;7947;48.834;9.132;2022-07-19T04:57:29;3.22;;;2.85;;
15693;SDS011;7947;48.834;9.132;2022-07-19T05:00:32;7.20;;;3.92;;
15693;SDS011;7947;48.834;9.132;2022-07-19T05:03:35;7.65;;;3.47;;
15693;SDS011;7947;48.834;9.132;2022-07-19T05:06:38;7.00;;;3.63;;
15693;SDS011;7947;48.834;9.132;2022-07-19T05:09:41;7.55;;;3.65;;
15693;SDS011;7947;48.834;9.132;2022-07-19T05:12:46;6.03;;;3.53;;
15693;SDS011;7947;48.834;9.132;2022-07-19T05:15:49;8.73;;;3.40;;
15693;SDS011;7947;48.834;9.132;2022-07-19T05:18:52;4.22;;;3.50;;
15693;SDS011;7947;48.834;9.132;2022-07-19T05:21:55;5.28;;;3.75;;
15693;SDS011;7947;48.834;9.132;2022-07-19T05:24:59;6.22;;;3.88;;
15693;SDS011;7947;48.834;9.132;2022-07-19T05:28:04;7.10;;;3.17;;
15693;SDS011;7947;48.834;9.132;2022-07-19T05:31:07;5.90;;;3.63;;
15693;SDS011;7947;48.834;9.132;2022-07-19T05:34:10;8.82;;;4.03;;
15693;SDS011;7947;48.834;9.132;2022-07-19T05:37:13;5.47;;;3.65;;
15693;SDS011;7947;48.834;9.132;2022-07-19T05:40:18;5.28;;;3.35;;
15693;SDS011;7947;48.834;9.132;2022-07-19T05:43:23;5.80;;;3.35;;
15693;SDS011;7947;48.834;9.132;2022-07-19T05:46:26;5.25;;;3.33;;
15693;SDS011;7947;48.834;9.132;2022-07-19T05:49:29;8.25;;;3.60;;
15693;SDS011;7947;48.834;9.132;2022-07-19T05:52:31;7.70;;;3.90;;
15693;SDS011;7947;48.834;9.132;2022-07-19T05:55:38;7.85;;;4.03;;
15693;SDS011;7947;48.834;9.132;2022-07-19T05:58:42;5.80;;;3.05;;
15693;SDS011;7947;48.834;9.132;2022-07-19T06:01:46;4.88;;;3.03;;
15693;SDS011;7947;48.834;9.132;2022-07-19T06:04:49;8.80;;;2.90;;
15693;SDS011;7947;48.834;9.132;2022-07-19T06:07:52;8.25;;;3.72;;
15693;SDS011;7947;48.834;9.132;2022-07-19T06:10:55;6.30;;;3.10;;
15693;SDS011;7947;48.834;9.132;2022-07-19T06:13:59;7.15;;;3.15;;
15693;SDS011;7947;48.834;9.132;2022-07-19T06:17:02;9.80;;;2.85;;
15693;SDS011;7947;48.834;9.132;2022-07-19T06:20:06;7.80;;;2.90;;
15693;SDS011;7947;48.834;9.132;2022-07-19T06:23:10;14.05;;;3.60;;
15693;SDS011;7947;48.834;9.132;2022-07-19T06:26:20;5.32;;;2.55;;
15693;SDS011;7947;48.834;9.132;2022-07-19T06:29:24;4.72;;;2.95;;
15693;SDS011;7947;48.834;9.132;2022-07-19T06:32:27;3.60;;;2.60;;
15693;SDS011;7947;48.834;9.132;2022-07-19T06:35:30;7.13;;;2.60;;
15693;SDS011;7947;48.834;9.132;2022-07-19T06:38:33;4.38;;;2.60;;
15693;SDS011;7947;48.834;9.132;2022-07-19T06:41:36;7.40;;;2.67;;
15693;SDS011;7947;48.834;9.132;2022-07-19T06:44:41;9.55;;;2.30;;
15693;SDS011;7947;48.834;9.132;2022-07-19T06:47:44;5.15;;;2.40;;
15693;SDS011;7947;48.834;9.132;2022-07-19T06:50:47;9.13;;;2.92;;
15693;SDS011;7947;48.834;9.132;2022-07-19T06:53:51;5.60;;;2.17;;
15693;SDS011;7947;48.834;9.132;2022-07-19T06:56:54;7.90;;;2.88;;
15693;SDS011;7947;48.834;9.132;2022-07-19T06:59:58;8.45;;;2.78;;
15693;SDS011;7947;48.834;9.132;2022-07-19T07:03:01;6.85;;;3.08;;
15693;SDS011;7947;48.834;9.132;2022-07-19T07:06:04;6.18;;;2.40;;
15693;SDS011;7947;48.834;9.132;2022-07-19T07:09:08;7.55;;;2.97;;
15693;SDS011;7947;48.834;9.132;2022-07-19T07:12:11;6.93;;;2.58;;
15693;SDS011;7947;48.834;9.132;2022-07-19T07:15:15;5.00;;;2.05;;
15693;SDS011;7947;48.834;9.132;2022-07-19T07:18:18;3.38;;;2.30;;
15693;SDS011;7947;48.834;9.132;2022-07-19T07:21:21;5.75;;;2.88;;
15693;SDS011;7947;48.834;9.132;2022-07-19T07:24:24;6.13;;;2.78;;
15693;SDS011;7947;48.834;9.132;2022-07-19T07:27:27;9.88;;;2.78;;
15693;SDS011;7947;48.834;9.132;2022-07-19T07:30:32;7.30;;;2.60;;
15693;SDS011;7947;48.834;9.132;2022-07-19T07:33:35;8.77;;;2.22;;
15693;SDS011;7947;48.834;9.132;2022-07-19T07:36:38;5.50;;;2.47;;
15693;SDS011;7947;48.834;9.132;2022-07-19T07:39:41;3.85;;;2.40;;
15693;SDS011;7947;48.834;9.132;2022-07-19T07:42:44;6.47;;;2.10;;
15693;SDS011;7947;48.834;9.132;2022-07-19T07:45:48;7.43;;;2.40;;
15693;SDS011;7947;48.834;9.132;2022-07-19T07:48:51;4.07;;;2.00;;
15693;SDS011;7947;48.834;9.132;2022-07-19T07:51:57;3.88;;;2.00;;
15693;SDS011;7947;48.834;9.132;2022-07-19T07:55:00;4.80;;;1.50;;
15693;SDS011;7947;48.834;9.132;2022-07-19T07:58:24;3.50;;;1.80;;
15693;SDS011;7947;48.834;9.132;2022-07-19T08:01:29;6.03;;;2.10;;
15693;SDS011;7947;48.834;9.132;2022-07-19T08:04:32;5.22;;;2.08;;
15693;SDS011;7947;48.834;9.132;2022-07-19T08:07:35;5.38;;;2.03;;
15693;SDS011;7947;48.834;9.132;2022-07-19T08:10:39;8.35;;;2.13;;
15693;SDS011;7947;48.834;9.132;2022-07-19T08:13:42;5.25;;;1.85;;
15693;SDS011;7947;48.834;9.132;2022-07-19T08:16:47;3.30;;;1.88;;
15693;SDS011;7947;48.834;9.132;2022-07-19T08:19:50;2.72;;;1.60;;
15693;SDS011;7947;48.834;9.132;2022-07-19T08:22:53;2.22;;;1.50;;
15693;SDS011;7947;48.834;9.132;2022-07-19T08:25:56;2.53;;;1.25;;
15693;SDS011;7947;48.834;9.132;2022-07-19T08:29:02;2.88;;;1.67;;
15693;SDS011;7947;48.834;9.132;2022-07-19T08:32:06;6.07;;;1.70;;
15693;SDS011;7947;48.834;9.132;2022-07-19T08:35:10;8.52;;;1.90;;
15693;SDS011;7947;48.834;9.132;2022-07-19T08:38:13;3.22;;;1.60;;
15693;SDS011;7947;48.834;9.132;2022-07-19T08:41:17;5.55;;;1.90;;
15693;SDS011;7947;48.834;9.132;2022-07-19T08:44:21;2.67;;;1.63;;
15693;SDS011;7947;48.834;9.132;2022-07-19T08:47:28;2.20;;;1.70;;
15693;SDS011;7947;48.834;9.132;2022-07-19T08:50:32;5.55;;;1.70;;
15693;SDS011;7947;48.834;9.132;2022-07-19T08:53:35;2.65;;;1.73;;
15693;SDS011;7947;48.834;9.132;2022-07-19T08:56:42;3.72;;;1.70;;
15693;SDS011;7947;48.834;9.132;2022-07-19T09:00:03;6.10;;;1.70;;
15693;SDS011;7947;48.834;9.132;2022-07-19T09:03:13;3.72;;;2.00;;
15693;SDS011;7947;48.834;9.132;2022-07-19T09:06:16;4.60;;;1.70;;
15693;SDS011;7947;48.834;9.132;2022-07-19T09:09:20;5.25;;;1.60;;
15693;SDS011;7947;48.834;9.132;2022-07-19T09:12:24;5.70;;;1.60;;
15693;SDS011;7947;48.834;9.132;2022-07-19T09:15:35;4.07;;;1.65;;
15693;SDS011;7947;48.834;9.132;2022-07-19T09:18:41;1.70;;;1.58;;
15693;SDS011;7947;48.834;9.132;2022-07-19T09:21:53;2.40;;;1.50;;
15693;SDS011;7947;48.834;9.132;2022-07-19T09:24:58;4.35;;;1.70;;
15693;SDS011;7947;48.834;9.132;2022-07-19T09:28:01;4.07;;;1.50;;
15693;SDS011;7947;48.834;9.132;2022-07-19T09:31:04;3.05;;;1.40;;
15693;SDS011;7947;48.834;9.132;2022-07-19T09:34:10;2.25;;;1.60;;
15693;SDS011;7947;48.834;9.132;2022-07-19T09:37:16;3.83;;;1.40;;
15693;SDS011;7947;48.834;9.132;2022-07-19T09:40:20;3.05;;;1.60;;
15693;SDS011;7947;48.834;9.132;2022-07-19T09:43:23;3.47;;;1.80;;
15693;SDS011;7947;48.834;9.132;2022-07-19T09:46:47;3.40;;;1.90;;
15693;SDS011;7947;48.834;9.132;2022-07-19T09:49:53;4.88;;;1.85;;
15693;SDS011;7947;48.834;9.132;2022-07-19T09:52:57;2.47;;;1.95;;
15693;SDS011;7947;48.834;9.132;2022-07-19T09:56:03;5.72;;;2.05;;
15693;SDS011;7947;48.834;9.132;2022-07-19T09:59:06;2.05;;;1.70;;
15693;SDS011;7947;48.834;9.132;2022-07-19T10:02:10;4.15;;;1.48;;
15693;SDS011;7947;48.834;9.132;2022-07-19T10:05:16;3.50;;;1.80;;
15693;SDS011;7947;48.834;9.132;2022-07-19T10:08:20;3.65;;;2.38;;
15693;SDS011;7947;48.834;9.132;2022-07-19T10:11:24;3.80;;;2.00;;
15693;SDS011;7947;48.834;9.132;2022-07-19T10:14:27;3.05;;;1.85;;
15693;SDS011;7947;48.834;9.132;2022-07-19T10:17:32;2.85;;;2.00;;
15693;SDS011;7947;48.834;9.132;2022-07-19T10:20:39;4.43;;;1.92;;
15693;SDS011;7947;48.834;9.132;2022-07-19T10:23:50;2.88;;;2.00;;
15693;SDS011;7947;48.834;9.132;2022-07-19T10:26:55;7.35;;;2.00;;
15693;SDS011;7947;48.834;9.132;2022-07-19T10:30:15;4.45;;;2.42;;
15693;SDS011;7947;48.834;9.132;2022-07-19T10:33:29;4.82;;;2.22;;
15693;SDS011;7947;48.834;9.132;2022-07-19T10:36:36;3.53;;;2.20;;
15693;SDS011;7947;48.834;9.132;2022-07-19T10:39:41;2.88;;;2.15;;
15693;SDS011;7947;48.834;9.132;2022-07-19T10:46:16;4.53;;;2.10;;
15693;SDS011;7947;48.834;9.132;2022-07-19T10:52:49;3.38;;;2.40;;
15693;SDS011;7947;48.834;9.132;2022-07-19T10:56:03;7.15;;;2.03;;
15693;SDS011;7947;48.834;9.132;2022-07-19T10:59:18;10.55;;;2.08;;
15693;SDS011;7947;48.834;9.132;2022-07-19T11:02:33;4.47;;;1.85;;
15693;SDS011;7947;48.834;9.132;2022-07-19T11:05:46;4.93;;;1.88;;
15693;SDS011;7947;48.834;9.132;2022-07-19T11:08:53;4.18;;;1.88;;
15693;SDS011;7947;48.834;9.132;2022-07-19T11:11:57;3.00;;;2.40;;
15693;SDS011;7947;48.834;9.132;2022-07-19T11:15:02;4.50;;;1.88;;
15693;SDS011;7947;48.834;9.132;2022-07-19T11:18:18;3.00;;;2.05;;
15693;SDS011;7947;48.834;9.132;2022-07-19T11:21:21;3.70;;;1.85;;
15693;SDS011;7947;48.834;9.132;2022-07-19T11:24:25;3.42;;;2.00;;
15693;SDS011;7947;48.834;9.132;2022-07-19T11:27:29;4.38;;;2.08;;
15693;SDS011;7947;48.834;9.132;2022-07-19T11:30:32;5.03;;;1.88;;
15693;SDS011;7947;48.834;9.132;2022-07-19T11:33:37;3.60;;;2.13;;
15693;SDS011;7947;48.834;9.132;2022-07-19T11:36:40;2.70;;;1.80;;
15693;SDS011;7947;48.834;9.132;2022-07-19T11:39:48;2.10;;;1.80;;
15693;SDS011;7947;48.834;9.132;2022-07-19T11:42:52;3.35;;;2.08;;
15693;SDS011;7947;48.834;9.132;2022-07-19T11:46:15;2.78;;;2.40;;
15693;SDS011;7947;48.834;9.132;2022-07-19T11:49:20;2.97;;;2.38;;
15693;SDS011;7947;48.834;9.132;2022-07-19T11:52:23;6.03;;;1.85;;
15693;SDS011;7947;48.834;9.132;2022-07-19T11:55:28;3.25;;;1.98;;
15693;SDS011;7947;48.834;9.132;2022-07-19T11:58:32;4.78;;;1.90;;
15693;SDS011;7947;48.834;9.132;2022-07-19T12:01:36;2.78;;;2.00;;
15693;SDS011;7947;48.834;9.132;2022-07-19T12:04:40;4.25;;;2.03;;
15693;SDS011;7947;48.834;9.132;2022-07-19T12:07:44;3.30;;;1.98;;
15693;SDS011;7947;48.834;9.132;2022-07-19T12:10:50;4.75;;;2.05;;
15693;SDS011;7947;48.834;9.132;2022-07-19T12:13:55;3.30;;;1.95;;
15693;SDS011;7947;48.834;9.132;2022-07-19T12:17:09;3.42;;;2.30;;
15693;SDS011;7947;48.834;9.132;2022-07-19T12:20:14;6.82;;;2.22;;
15693;SDS011;7947;48.834;9.132;2022-07-19T12:23:37;5.65;;;2.60;;
15693;SDS011;7947;48.834;9.132;2022-07-19T12:26:43;4.15;;;1.88;;
15693;SDS011;7947;48.834;9.132;2022-07-19T12:29:55;7.10;;;2.38;;
15693;SDS011;7947;48.834;9.132;2022-07-19T12:33:06;5.80;;;2.15;;
15693;SDS011;7947;48.834;9.132;2022-07-19T12:36:17;4.57;;;2.30;;
15693;SDS011;7947;48.834;9.132;2022-07-19T12:39:37;8.70;;;2.05;;
15693;SDS011;7947;48.834;9.132;2022-07-19T12:42:43;4.97;;;2.00;;
15693;SDS011;7947;48.834;9.132;2022-07-19T12:45:47;7.40;;;2.28;;
15693;SDS011;7947;48.834;9.132;2022-07-19T12:48:50;5.63;;;2.42;;
15693;SDS011;7947;48.834;9.132;2022-07-19T12:51:52;3.78;;;2.40;;
15693;SDS011;7947;48.834;9.132;2022-07-19T12:54:55;6.03;;;2.50;;
15693;SDS011;7947;48.834;9.132;2022-07-19T12:58:00;3.05;;;1.83;;
15693;SDS011;7947;48.834;9.132;2022-07-19T13:01:04;4.88;;;2.47;;
15693;SDS011;7947;48.834;9.132;2022-07-19T13:04:10;5.10;;;2.28;;
15693;SDS011;7947;48.834;9.132;2022-07-19T13:07:13;5.35;;;2.60;;
15693;SDS011;7947;48.834;9.132;2022-07-19T13:10:16;5.47;;;2.05;;
15693;SDS011;7947;48.834;9.132;2022-07-19T13:13:20;7.20;;;2.03;;
15693;SDS011;7947;48.834;9.132;2022-07-19T13:16:23;4.35;;;2.30;;
15693;SDS011;7947;48.834;9.132;2022-07-19T13:19:27;5.18;;;2.63;;
15693;SDS011;7947;48.834;9.132;2022-07-19T13:22:30;5.97;;;2.33;;
15693;SDS011;7947;48.834;9.132;2022-07-19T13:25:33;3.75;;;2.45;;
15693;SDS011;7947;48.834;9.132;2022-07-19T13:28:47;6.00;;;2.50;;
15693;SDS011;7947;48.834;9.132;2022-07-19T13:31:51;3.65;;;2.38;;
15693;SDS011;7947;48.834;9.132;2022-07-19T13:34:55;4.88;;;2.40;;
15693;SDS011;7947;48.834;9.132;2022-07-19T13:37:58;5.85;;;2.58;;
15693;SDS011;7947;48.834;9.132;2022-07-19T13:41:01;4.53;;;2.63;;
15693;SDS011;7947;48.834;9.132;2022-07-19T13:44:06;5.18;;;2.80;;
15693;SDS011;7947;48.834;9.132;2022-07-19T13:47:10;3.80;;;2.30;;
15693;SDS011;7947;48.834;9.132;2022-07-19T13:50:14;7.47;;;2.38;;
15693;SDS011;7947;48.834;9.132;2022-07-19T13:53:17;3.08;;;2.13;;
15693;SDS011;7947;48.834;9.132;2022-07-19T13:56:21;6.07;;;2.45;;
15693;SDS011;7947;48.834;9.132;2022-07-19T13:59:26;7.05;;;2.45;;
15693;SDS011;7947;48.834;9.132;2022-07-19T14:02:31;7.75;;;2.92;;
15693;SDS011;7947;48.834;9.132;2022-07-19T14:05:34;4.25;;;2.60;;
15693;SDS011;7947;48.834;9.132;2022-07-19T14:08:40;2.85;;;2.22;;
15693;SDS011;7947;48.834;9.132;2022-07-19T14:11:43;4.63;;;1.90;;
15693;SDS011;7947;48.834;9.132;2022-07-19T14:14:48;3.38;;;2.33;;
15693;SDS011;7947;48.834;9.132;2022-07-19T14:17:51;3.80;;;3.15;;
15693;SDS011;7947;48.834;9.132;2022-07-19T14:20:55;3.10;;;2.40;;
15693;SDS011;7947;48.834;9.132;2022-07-19T14:23:58;4.15;;;2.28;;
15693;SDS011;7947;48.834;9.132;2022-07-19T14:27:01;4.22;;;2.05;;
15693;SDS011;7947;48.834;9.132;2022-07-19T14:30:06;4.20;;;2.20;;
15693;SDS011;7947;48.834;9.132;2022-07-19T14:33:10;5.03;;;2.47;;
15693;SDS011;7947;48.834;9.132;2022-07-19T14:36:13;5.88;;;2.20;;
15693;SDS011;7947;48.834;9.132;2022-07-19T14:39:17;5.63;;;2.38;;
15693;SDS011;7947;48.834;9.132;2022-07-19T14:42:19;6.60;;;2.17;;
15693;SDS011;7947;48.834;9.132;2022-07-19T14:45:26;5.50;;;2.20;;
15693;SDS011;7947;48.834;9.132;2022-07-19T14:48:29;2.67;;;1.90;;
15693;SDS011;7947;48.834;9.132;2022-07-19T14:51:32;2.92;;;2.22;;
15693;SDS011;7947;48.834;9.132;2022-07-19T14:54:35;3.17;;;2.10;;
15693;SDS011;7947;48.834;9.132;2022-07-19T14:57:38;4.07;;;2.15;;
15693;SDS011;7947;48.834;9.132;2022-07-19T15:00:43;5.20;;;2.40;;
15693;SDS011;7947;48.834;9.132;2022-07-19T15:03:46;8.77;;;2.42;;
15693;SDS011;7947;48.834;9.132;2022-07-19T15:06:49;3.25;;;2.13;;
15693;SDS011;7947;48.834;9.132;2022-07-19T15:09:52;3.10;;;1.90;;
15693;SDS011;7947;48.834;9.132;2022-07-19T15:12:55;3.95;;;2.20;;
15693;SDS011;7947;48.834;9.132;2022-07-19T15:16:00;8.25;;;2.40;;
15693;SDS011;7947;48.834;9.132;2022-07-19T15:19:04;4.47;;;2.85;;
15693;SDS011;7947;48.834;9.132;2022-07-19T15:22:07;4.38;;;2.20;;
15693;SDS011;7947;48.834;9.132;2022-07-19T15:25:10;5.53;;;1.98;;
15693;SDS011;7947;48.834;9.132;2022-07-19T15:28:13;5.22;;;2.47;;
15693;SDS011;7947;48.834;9.132;2022-07-19T15:31:18;5.00;;;2.30;;
15693;SDS011;7947;48.834;9.132;2022-07-19T15:34:21;7.53;;;2.60;;
15693;SDS011;7947;48.834;9.132;2022-07-19T15:37:24;7.53;;;2.50;;
15693;SDS011;7947;48.834;9.132;2022-07-19T15:40:29;4.15;;;2.28;;
15693;SDS011;7947;48.834;9.132;2022-07-19T15:43:32;5.35;;;2.30;;
15693;SDS011;7947;48.834;9.132;2022-07-19T15:46:36;4.90;;;2.20;;
15693;SDS011;7947;48.834;9.132;2022-07-19T15:49:47;8.32;;;2.08;;
15693;SDS011;7947;48.834;9.132;2022-07-19T15:52:50;6.97;;;2.80;;
15693;SDS011;7947;48.834;9.132;2022-07-19T15:55:53;3.25;;;1.80;;
15693;SDS011;7947;48.834;9.132;2022-07-19T15:58:56;4.40;;;2.40;;
15693;SDS011;7947;48.834;9.132;2022-07-19T16:02:01;5.45;;;2.28;;
15693;SDS011;7947;48.834;9.132;2022-07-19T16:05:05;4.75;;;2.08;;
15693;SDS011;7947;48.834;9.132;2022-07-19T16:08:09;3.38;;;1.92;;
15693;SDS011;7947;48.834;9.132;2022-07-19T16:11:12;5.93;;;2.20;;
15693;SDS011;7947;48.834;9.132;2022-07-19T16:14:15;3.40;;;1.80;;
15693;SDS011;7947;48.834;9.132;2022-07-19T16:17:20;3.38;;;2.10;;
15693;SDS011;7947;48.834;9.132;2022-07-19T16:20:23;3.15;;;2.00;;
15693;SDS011;7947;48.834;9.132;2022-07-19T16:23:27;2.58;;;2.35;;
15693;SDS011;7947;48.834;9.132;2022-07-19T16:26:30;2.80;;;2.25;;
15693;SDS011;7947;48.834;9.132;2022-07-19T16:29:53;4.53;;;2.00;;
15693;SDS011;7947;48.834;9.132;2022-07-19T16:32:57;2.42;;;1.90;;
15693;SDS011;7947;48.834;9.132;2022-07-19T16:36:00;6.00;;;2.17;;
15693;SDS011;7947;48.834;9.132;2022-07-19T16:39:04;4.72;;;2.40;;
15693;SDS011;7947;48.834;9.132;2022-07-19T16:42:27;1.95;;;1.75;;
15693;SDS011;7947;48.834;9.132;2022-07-19T16:45:50;4.00;;;2.17;;
15693;SDS011;7947;48.834;9.132;2022-07-19T16:48:54;2.80;;;1.80;;
15693;SDS011;7947;48.834;9.132;2022-07-19T16:51:57;3.22;;;2.10;;
15693;SDS011;7947;48.834;9.132;2022-07-19T16:55:00;5.85;;;2.13;;
15693;SDS011;7947;48.834;9.132;2022-07-19T16:58:03;4.93;;;2.17;;
15693;SDS011;7947;48.834;9.132;2022-07-19T17:01:07;4.90;;;1.98;;
15693;SDS011;7947;48.834;9.132;2022-07-19T17:04:11;6.80;;;2.28;;
15693;SDS011;7947;48.834;9.132;2022-07-19T17:07:14;3.60;;;2.15;;
15693;SDS011;7947;48.834;9.132;2022-07-19T17:10:19;8.73;;;1.98;;
15693;SDS011;7947;48.834;9.132;2022-07-19T17:13:38;5.13;;;2.15;;
15693;SDS011;7947;48.834;9.132;2022-07-19T17:16:42;5.38;;;2.00;;
15693;SDS011;7947;48.834;9.132;2022-07-19T17:19:46;4.05;;;2.30;;
15693;SDS011;7947;48.834;9.132;2022-07-19T17:22:49;3.10;;;1.83;;
15693;SDS011;7947;48.834;9.132;2022-07-19T17:25:52;4.05;;;2.03;;
15693;SDS011;7947;48.834;9.132;2022-07-19T17:28:55;5.82;;;2.00;;
15693;SDS011;7947;48.834;9.132;2022-07-19T17:31:58;2.45;;;1.90;;
15693;SDS011;7947;48.834;9.132;2022-07-19T17:35:03;4.30;;;2.10;;
15693;SDS011;7947;48.834;9.132;2022-07-19T17:38:07;3.83;;;2.15;;
15693;SDS011;7947;48.834;9.132;2022-07-19T17:41:10;3.00;;;2.08;;
15693;SDS011;7947;48.834;9.132;2022-07-19T17:44:16;7.93;;;2.22;;
15693;SDS011;7947;48.834;9.132;2022-07-19T17:47:20;7.30;;;2.10;;
15693;SDS011;7947;48.834;9.132;2022-07-19T17:50:29;5.25;;;2.40;;
15693;SDS011;7947;48.834;9.132;2022-07-19T17:53:32;5.72;;;2.70;;
15693;SDS011;7947;48.834;9.132;2022-07-19T17:56:35;3.65;;;2.60;;
15693;SDS011;7947;48.834;9.132;2022-07-19T17:59:38;8.45;;;3.00;;
15693;SDS011;7947;48.834;9.132;2022-07-19T18:02:41;5.50;;;2.70;;
15693;SDS011;7947;48.834;9.132;2022-07-19T18:05:55;9.73;;;3.20;;
15693;SDS011;7947;48.834;9.132;2022-07-19T18:08:58;5.13;;;3.10;;
15693;SDS011;7947;48.834;9.132;2022-07-19T18:12:01;5.43;;;3.40;;
15693;SDS011;7947;48.834;9.132;2022-07-19T18:15:05;7.80;;;3.38;;
15693;SDS011;7947;48.834;9.132;2022-07-19T18:18:08;4.22;;;3.17;;
15693;SDS011;7947;48.834;9.132;2022-07-19T18:21:16;6.75;;;3.00;;
15693;SDS011;7947;48.834;9.132;2022-07-19T18:24:19;4.45;;;2.70;;
15693;SDS011;7947;48.834;9.132;2022-07-19T18:27:22;9.13;;;3.15;;
15693;SDS011;7947;48.834;9.132;2022-07-19T18:30:26;6.78;;;2.80;;
15693;SDS011;7947;48.834;9.132;2022-07-19T18:33:29;6.20;;;2.97;;
15693;SDS011;7947;48.834;9.132;2022-07-19T18:36:34;3.35;;;2.70;;
15693;SDS011;7947;48.834;9.132;2022-07-19T18:39:37;5.38;;;2.60;;
15693;SDS011;7947;48.834;9.132;2022-07-19T18:42:41;5.53;;;2.58;;
15693;SDS011;7947;48.834;9.132;2022-07-19T18:45:50;5.32;;;2.72;;
15693;SDS011;7947;48.834;9.132;2022-07-19T18:48:53;2.65;;;2.45;;
15693;SDS011;7947;48.834;9.132;2022-07-19T18:51:59;5.57;;;2.38;;
15693;SDS011;7947;48.834;9.132;2022-07-19T18:55:03;3.97;;;2.92;;